Time;durP1;ratioP1;P1;durP2;ratioP2;P2;SDS_P1;SDS_P2;PMS_P1;PMS_P2;Temp;Humidity;BMP_temperature;BMP_pressure;BME280_temperature;BME280_humidity;BME280_pressure;Samples;Min_cycle;Max_cycle;Signal;HPM_P1;HPM_P2
2023/05/24 05:42:14;;;;;;;16.87;11.48;;;;;;;20.68;100.00;100073.78;6624948;26;357275;-89
2023/05/24 05:45:24;;;;;;;11.63;10.43;;;;;;;20.53;100.00;100075.28;6635328;26;33773;-90
2023/05/24 05:48:28;;;;;;;12.63;10.07;;;;;;;22.43;100.00;100072.59;6636072;26;34196;-90
2023/05/24 05:55:11;;;;;;;12.37;10.32;;;;;;;22.80;99.19;100089.50;6637382;26;20290;-88
2023/05/24 05:58:20;;;;;;;11.10;10.00;;;;;;;21.72;100.00;100084.28;6637303;26;34973;-88
2023/05/24 06:01:27;;;;;;;11.88;10.23;;;;;;;20.98;100.00;100093.34;6634890;26;34527;-86
2023/05/24 06:04:32;;;;;;;12.15;10.48;;;;;;;21.40;100.00;100085.69;6636154;26;33762;-87
2023/05/24 06:07:37;;;;;;;12.80;10.43;;;;;;;21.29;100.00;100081.37;6635062;26;34340;-87
2023/05/24 06:10:44;;;;;;;11.80;10.20;;;;;;;20.71;100.00;100089.66;6635170;26;34246;-87
2023/05/24 06:13:50;;;;;;;14.80;10.95;;;;;;;20.29;100.00;100095.50;6639600;26;35286;-87
2023/05/24 06:16:56;;;;;;;10.88;9.75;;;;;;;20.45;100.00;100089.47;6649936;26;33788;-87
2023/05/24 06:20:10;;;;;;;11.15;10.05;;;;;;;22.08;100.00;100086.09;6646163;26;34071;-86
2023/05/24 06:23:17;;;;;;;10.10;9.10;;;;;;;22.16;100.00;100091.53;6646996;26;34133;-86
2023/05/24 06:26:22;;;;;;;12.35;9.85;;;;;;;22.75;100.00;100085.44;6643275;26;34325;-86
2023/05/24 06:29:29;;;;;;;11.20;9.48;;;;;;;22.85;98.26;100088.00;6647918;26;33664;-86
2023/05/24 06:32:36;;;;;;;12.32;9.43;;;;;;;23.11;96.71;100100.56;6644356;26;34298;-87
2023/05/24 06:35:41;;;;;;;11.82;9.13;;;;;;;23.77;91.31;100101.66;6634843;26;34090;-92
2023/05/24 06:38:48;;;;;;;9.90;9.00;;;;;;;23.09;93.93;100097.16;6634285;26;33667;-91
2023/05/24 06:41:55;;;;;;;10.15;8.43;;;;;;;22.39;98.13;100106.34;6633704;26;33881;-87
2023/05/24 06:44:59;;;;;;;10.27;9.23;;;;;;;22.67;97.88;100106.19;6635031;26;33782;-86
2023/05/24 06:48:04;;;;;;;10.45;9.43;;;;;;;22.04;100.00;100109.88;6633242;26;33714;-87
2023/05/24 06:51:08;;;;;;;11.63;10.43;;;;;;;21.47;100.00;100111.03;6639079;26;33699;-88
2023/05/24 06:54:13;;;;;;;11.52;10.27;;;;;;;21.20;100.00;100112.81;6642558;26;33837;-88
2023/05/24 06:57:20;;;;;;;12.37;10.07;;;;;;;21.45;100.00;100113.06;6636645;26;34507;-89
2023/05/24 07:00:24;;;;;;;11.80;9.73;;;;;;;21.16;100.00;100115.97;6635432;26;34087;-86
2023/05/24 07:03:27;;;;;;;12.80;10.23;;;;;;;21.62;100.00;100113.22;6634303;26;33409;-85
2023/05/24 07:06:34;;;;;;;11.32;9.93;;;;;;;22.26;100.00;100112.16;6635146;26;33695;-85
2023/05/24 07:09:40;;;;;;;11.80;9.90;;;;;;;21.66;100.00;100117.28;6634004;26;33881;-87
2023/05/24 07:12:46;;;;;;;10.60;9.50;;;;;;;21.98;100.00;100115.03;6635135;26;33773;-85
2023/05/24 07:15:52;;;;;;;10.70;9.70;;;;;;;22.44;100.00;100120.22;6638011;26;33863;-87
2023/05/24 07:18:58;;;;;;;11.80;10.07;;;;;;;22.93;96.65;100125.03;6635662;26;33964;-86
2023/05/24 07:22:06;;;;;;;11.35;9.68;;;;;;;22.91;94.98;100121.66;6636873;26;33999;-87
2023/05/24 07:25:11;;;;;;;15.00;10.07;;;;;;;22.95;94.65;100127.56;6636227;26;33497;-87
2023/05/24 07:28:16;;;;;;;12.50;9.68;;;;;;;23.57;93.64;100128.25;6636401;26;34977;-87
2023/05/24 07:31:22;;;;;;;12.45;10.20;;;;;;;23.90;90.01;100133.66;6635187;26;33908;-86
2023/05/24 07:34:28;;;;;;;13.15;10.52;;;;;;;24.50;86.37;100140.53;6638332;26;34000;-87
2023/05/24 07:37:33;;;;;;;10.55;9.45;;;;;;;23.60;89.48;100149.56;6636527;26;34295;-88
2023/05/24 07:40:38;;;;;;;13.02;10.63;;;;;;;24.08;87.51;100138.91;6641131;26;33958;-87
2023/05/24 07:43:42;;;;;;;11.68;10.45;;;;;;;23.68;89.24;100136.88;6634873;26;33850;-87
2023/05/24 07:46:46;;;;;;;10.63;9.40;;;;;;;23.73;87.18;100140.94;6639051;26;34590;-86
2023/05/24 07:49:51;;;;;;;11.18;9.98;;;;;;;23.93;88.92;100133.34;6635291;26;33464;-88
2023/05/24 07:52:56;;;;;;;12.40;10.48;;;;;;;24.08;86.78;100142.50;6636603;26;33783;-87
2023/05/24 07:56:01;;;;;;;13.93;10.20;;;;;;;24.02;85.26;100145.84;6635136;26;34636;-86
2023/05/24 07:59:06;;;;;;;11.80;10.02;;;;;;;24.17;87.71;100142.47;6636591;26;33831;-87
2023/05/24 08:02:19;;;;;;;14.32;10.95;;;;;;;25.28;82.23;100152.59;6636654;26;33733;-88
2023/05/24 08:05:35;;;;;;;14.50;10.85;;;;;;;24.70;82.84;100158.28;6636674;26;34133;-88
2023/05/24 08:08:40;;;;;;;13.93;10.65;;;;;;;24.46;83.55;100154.63;6642123;26;34267;-89
2023/05/24 08:15:37;;;;;;;13.95;10.52;;;;;;;23.79;85.86;100157.34;6641203;26;20113;-88
2023/05/24 08:18:43;;;;;;;12.45;10.50;;;;;;;25.56;79.64;100174.69;6644480;26;33926;-86
2023/05/24 08:21:48;;;;;;;11.73;10.23;;;;;;;25.89;77.45;100172.78;6644865;26;35104;-88
2023/05/24 08:24:54;;;;;;;12.63;10.40;;;;;;;25.03;80.74;100169.88;6644375;26;34005;-87
2023/05/24 08:31:44;;;;;;;12.48;9.88;;;;;;;24.96;80.90;100173.47;6639198;26;20325;-87
2023/05/24 08:34:50;;;;;;;17.33;9.98;;;;;;;25.27;76.71;100178.91;6634019;26;33970;-86
2023/05/24 08:38:06;;;;;;;13.15;9.40;;;;;;;25.30;75.67;100183.97;6644640;26;34613;-86
2023/05/24 08:41:15;;;;;;;10.00;9.00;;;;;;;25.01;76.67;100182.78;6638043;26;34273;-90
2023/05/24 08:44:21;;;;;;;11.43;9.00;;;;;;;25.49;76.05;100191.88;6634402;26;34029;-90
2023/05/24 08:47:32;;;;;;;9.75;8.13;;;;;;;25.42;75.53;100187.16;6635176;26;34050;-86
2023/05/24 08:50:38;;;;;;;10.00;7.82;;;;;;;25.36;75.88;100190.59;6634081;26;33990;-86
2023/05/24 08:53:49;;;;;;;9.95;8.10;;;;;;;26.66;71.68;100189.91;6634532;26;33720;-86
2023/05/24 08:56:54;;;;;;;18.77;7.72;;;;;;;26.82;69.46;100188.00;6634336;26;34483;-86
2023/05/24 09:00:00;;;;;;;9.13;7.68;;;;;;;27.12;69.28;100197.03;6635092;26;33499;-86
2023/05/24 09:03:07;;;;;;;9.55;7.43;;;;;;;27.68;63.97;100195.59;6636605;26;33703;-85
2023/05/24 09:06:15;;;;;;;11.73;7.78;;;;;;;27.92;61.67;100209.87;6634515;26;34177;-87
2023/05/24 09:09:21;;;;;;;9.00;7.55;;;;;;;28.50;58.32;100214.34;6635976;26;33915;-87
2023/05/24 09:12:31;;;;;;;9.05;7.80;;;;;;;28.27;56.75;100209.16;6637429;26;34610;-87
2023/05/24 09:15:45;;;;;;;13.95;7.50;;;;;;;27.50;59.12;100208.78;6637064;26;33435;-86
2023/05/24 09:18:49;;;;;;;10.77;7.95;;;;;;;27.34;58.72;100204.41;6639766;26;34544;-87
2023/05/24 09:21:54;;;;;;;7.60;6.82;;;;;;;25.43;62.10;100204.28;6644700;26;34257;-88
2023/05/24 09:25:03;;;;;;;8.30;7.50;;;;;;;26.66;60.05;100192.63;6650031;26;34019;-88
2023/05/24 09:28:12;;;;;;;8.07;7.00;;;;;;;27.02;57.45;100199.19;6642744;26;33961;-88
2023/05/24 09:31:16;;;;;;;9.93;6.90;;;;;;;26.46;57.29;100190.44;6638914;26;34587;-87
2023/05/24 09:34:20;;;;;;;24.40;7.00;;;;;;;26.03;60.44;100195.56;6641126;26;33925;-87
2023/05/24 09:37:26;;;;;;;10.27;6.07;;;;;;;26.95;54.79;100196.37;6638169;26;33978;-87
2023/05/24 09:40:34;;;;;;;6.82;6.20;;;;;;;27.84;53.81;100190.91;6636501;26;34128;-87
2023/05/24 09:43:48;;;;;;;14.98;6.68;;;;;;;29.13;50.02;100198.12;6636850;26;34495;-87
2023/05/24 09:46:52;;;;;;;6.85;6.25;;;;;;;28.52;50.88;100187.72;6640224;26;33911;-87
2023/05/24 09:50:00;;;;;;;9.70;6.90;;;;;;;28.76;51.71;100182.81;6637215;26;33900;-87
2023/05/24 09:53:07;;;;;;;8.40;6.90;;;;;;;29.73;49.02;100195.59;6636062;26;34774;-87
2023/05/24 09:56:14;;;;;;;7.97;6.87;;;;;;;29.01;50.24;100193.25;6635791;26;33942;-87
2023/05/24 09:59:20;;;;;;;7.20;6.50;;;;;;;28.51;53.18;100188.75;6635253;26;33684;-87
2023/05/24 10:02:26;;;;;;;10.25;6.22;;;;;;;29.29;49.39;100192.31;6636056;26;34426;-86
2023/05/24 10:05:45;;;;;;;7.75;7.05;;;;;;;28.48;52.61;100197.34;6637221;26;34159;-87
2023/05/24 10:08:56;;;;;;;7.32;6.62;;;;;;;27.87;51.32;100195.12;6642977;26;33922;-88
2023/05/24 10:12:04;;;;;;;7.07;5.97;;;;;;;26.70;56.56;100195.81;6620149;26;35364;-88
2023/05/24 10:15:11;;;;;;;6.30;5.68;;;;;;;28.37;51.70;100196.00;6643352;26;34013;-88
2023/05/24 10:18:19;;;;;;;6.65;5.80;;;;;;;28.93;48.70;100198.91;6635519;26;34277;-88
2023/05/24 10:21:30;;;;;;;6.53;5.85;;;;;;;29.01;47.92;100197.88;6654229;26;35078;-88
2023/05/24 10:24:39;;;;;;;6.55;5.95;;;;;;;28.09;50.37;100195.97;6646396;26;35228;-88
2023/05/24 10:27:48;;;;;;;8.10;5.75;;;;;;;28.81;49.63;100206.75;6648968;26;34398;-88
2023/05/24 10:31:29;;;;;;;6.45;5.53;;;;;;;30.29;45.64;100202.81;6638854;26;32507;-88
2023/05/24 10:34:35;;;;;;;6.75;5.87;;;;;;;32.22;39.35;100204.09;6603962;26;34740;-88
2023/05/24 10:37:43;;;;;;;6.00;5.15;;;;;;;30.86;42.14;100192.19;6636899;26;33982;-88
2023/05/24 10:40:51;;;;;;;6.30;5.80;;;;;;;30.00;43.19;100194.78;6642291;26;35035;-89
2023/05/24 10:43:57;;;;;;;6.37;5.78;;;;;;;29.88;42.39;100194.59;6651564;26;34890;-89
2023/05/24 10:47:14;;;;;;;6.00;5.40;;;;;;;29.05;45.93;100188.22;6647309;26;34370;-89
2023/05/24 10:50:20;;;;;;;5.57;5.07;;;;;;;29.38;44.76;100192.13;6641937;26;33524;-88
2023/05/24 10:53:26;;;;;;;10.40;5.43;;;;;;;29.88;43.79;100191.00;6642402;26;34019;-89
2023/05/24 10:56:49;;;;;;;7.35;5.72;;;;;;;29.44;43.92;100188.56;6643549;26;34028;-88
2023/05/24 10:59:55;;;;;;;7.10;5.22;;;;;;;29.01;46.22;100185.06;6642990;26;35371;-88
2023/05/24 11:03:08;;;;;;;5.97;5.35;;;;;;;29.07;44.93;100177.97;6637239;26;33889;-87
2023/05/24 11:06:13;;;;;;;7.00;5.50;;;;;;;30.88;40.13;100186.50;6635395;26;34180;-86
2023/05/24 11:09:19;;;;;;;8.77;5.55;;;;;;;30.11;42.21;100196.94;6635951;26;33820;-86
2023/05/24 11:12:31;;;;;;;6.57;5.50;;;;;;;29.75;42.33;100189.09;6635811;26;34584;-86
2023/05/24 11:15:35;;;;;;;6.68;5.97;;;;;;;28.16;46.89;100185.13;6638334;26;34632;-86
2023/05/24 11:18:38;;;;;;;8.15;5.55;;;;;;;26.76;50.97;100179.56;6638633;26;33966;-87
2023/05/24 11:21:46;;;;;;;6.85;5.87;;;;;;;27.43;50.76;100179.59;6637131;26;34965;-87
2023/05/24 11:24:52;;;;;;;9.65;6.03;;;;;;;27.12;49.21;100168.97;6637248;26;33761;-87
2023/05/24 11:27:57;;;;;;;8.27;6.07;;;;;;;26.75;51.29;100166.19;6651042;26;34548;-86
2023/05/24 11:31:08;;;;;;;6.53;5.93;;;;;;;26.67;53.81;100156.22;6647887;26;34200;-87
2023/05/24 11:34:13;;;;;;;7.45;6.05;;;;;;;27.64;49.37;100158.87;6646207;26;35096;-87
2023/05/24 11:37:18;;;;;;;6.35;5.70;;;;;;;26.99;50.88;100158.75;6638901;26;34472;-87
2023/05/24 11:40:31;;;;;;;7.10;5.60;;;;;;;26.92;49.96;100153.22;6634979;26;33505;-87
2023/05/24 11:43:36;;;;;;;5.85;5.35;;;;;;;27.33;51.35;100161.88;6637941;26;34645;-91
2023/05/24 11:46:42;;;;;;;8.77;5.35;;;;;;;27.18;50.87;100152.72;6638204;26;34256;-92
2023/05/24 11:49:50;;;;;;;6.37;5.68;;;;;;;26.67;51.27;100150.78;6642736;26;34559;-88
2023/05/24 11:53:01;;;;;;;6.32;5.65;;;;;;;25.62;53.83;100148.69;6642615;26;34917;-87
2023/05/24 11:56:05;;;;;;;6.78;6.10;;;;;;;25.93;54.80;100146.91;6635098;26;34245;-86
2023/05/24 11:59:16;;;;;;;7.43;5.70;;;;;;;25.94;55.52;100149.44;6634386;26;34790;-86
2023/05/24 12:02:22;;;;;;;6.82;5.78;;;;;;;26.48;54.39;100157.62;6637306;26;34265;-87
2023/05/24 12:05:30;;;;;;;7.07;6.32;;;;;;;24.63;57.99;100149.97;6635052;26;34120;-86
2023/05/24 12:08:35;;;;;;;8.43;5.60;;;;;;;24.58;58.72;100153.22;6635362;26;34050;-86
2023/05/24 12:11:43;;;;;;;7.95;5.60;;;;;;;25.99;55.13;100153.50;6638055;26;33911;-86
2023/05/24 12:14:54;;;;;;;;;;;;;;;26.69;53.53;100150.59;6651950;26;34053;-86
2023/05/24 12:17:58;;;;;;;7.53;5.97;;;;;;;26.89;51.58;100151.69;6635073;26;34234;-86
2023/05/24 12:21:07;;;;;;;7.25;5.90;;;;;;;26.93;50.88;100151.34;6636875;26;34045;-87
2023/05/24 12:24:18;;;;;;;;;;;;;;;27.03;50.81;100150.03;6646374;26;33900;-86
2023/05/24 12:27:26;;;;;;;9.57;5.93;;;;;;;25.96;52.51;100158.25;6650040;26;34333;-87
2023/05/24 12:30:30;;;;;;;8.02;5.60;;;;;;;26.00;54.83;100158.75;6636461;26;34706;-87
2023/05/24 12:33:36;;;;;;;7.97;5.75;;;;;;;26.37;52.59;100142.63;6637097;26;34628;-87
2023/05/24 12:36:42;;;;;;;5.75;5.25;;;;;;;26.03;55.60;100150.22;6629977;26;34076;-88
2023/05/24 12:39:46;;;;;;;7.22;5.70;;;;;;;25.61;54.82;100144.28;6639336;26;34082;-87
2023/05/24 12:42:55;;;;;;;5.85;5.25;;;;;;;24.63;59.01;100147.28;6631587;26;34092;-87
2023/05/24 12:45:59;;;;;;;7.62;5.85;;;;;;;24.97;58.79;100142.59;6632404;26;33777;-87
2023/05/24 12:49:03;;;;;;;5.87;5.25;;;;;;;25.62;57.45;100136.97;6632057;26;34275;-87
2023/05/24 12:52:07;;;;;;;8.05;5.35;;;;;;;25.73;55.19;100133.84;6634815;26;34098;-86
2023/05/24 12:55:15;;;;;;;7.25;5.35;;;;;;;24.84;58.68;100132.34;6638583;26;34617;-87
2023/05/24 12:58:41;;;;;;;5.80;5.30;;;;;;;24.57;59.85;100129.84;6637078;26;34272;-88
2023/05/24 13:01:50;;;;;;;6.35;5.50;;;;;;;25.10;56.61;100132.00;6639620;26;33599;-88
2023/05/24 13:04:59;;;;;;;8.57;5.50;;;;;;;24.36;59.29;100123.16;6646050;26;33990;-90
2023/05/24 13:11:51;;;;;;;8.35;5.18;;;;;;;25.12;56.38;100123.69;6636190;26;20067;-88
2023/05/24 13:26:05;;;;;;;6.43;5.82;;;;;;;23.67;61.10;100118.09;6645015;26;20068;-86
2023/05/24 13:29:11;;;;;;;10.77;5.57;;;;;;;24.23;60.02;100120.97;6638265;26;33590;-89
2023/05/24 13:32:21;;;;;;;7.45;5.43;;;;;;;24.29;60.56;100124.84;6638390;26;34780;-86
2023/05/24 13:35:30;;;;;;;5.70;4.90;;;;;;;24.46;59.38;100116.66;6635728;26;34212;-86
2023/05/24 13:38:35;;;;;;;10.57;5.57;;;;;;;24.71;59.07;100119.28;6634684;26;33808;-85
2023/05/24 13:41:42;;;;;;;9.13;5.10;;;;;;;25.09;56.83;100121.34;6638312;26;33802;-86
2023/05/24 13:44:47;;;;;;;5.82;4.72;;;;;;;24.92;57.00;100118.72;6653178;26;34764;-86
2023/05/24 13:48:02;;;;;;;6.45;5.12;;;;;;;25.02;55.45;100108.50;6646437;26;35351;-86
2023/05/24 13:51:07;;;;;;;6.50;4.65;;;;;;;24.48;58.17;100111.91;6638772;26;33989;-88
2023/05/24 13:54:15;;;;;;;5.15;4.65;;;;;;;24.88;56.71;100112.81;6641118;26;33897;-90
2023/05/24 13:57:20;;;;;;;5.90;5.30;;;;;;;24.88;56.10;100110.09;6638289;26;33740;-86
2023/05/24 14:00:30;;;;;;;10.00;5.00;;;;;;;24.12;58.00;100105.06;6646100;26;34375;-86
2023/05/24 14:03:39;;;;;;;5.60;4.97;;;;;;;23.98;58.93;100109.28;6636537;26;34532;-86
2023/05/24 14:06:46;;;;;;;7.22;5.05;;;;;;;24.15;57.79;100098.44;6636358;26;35121;-86
2023/05/24 14:09:54;;;;;;;5.40;4.90;;;;;;;24.41;59.16;100109.06;6645619;26;33876;-86
2023/05/24 14:13:00;;;;;;;6.60;5.32;;;;;;;24.41;59.61;100095.50;6639250;26;34756;-88
2023/05/24 14:16:28;;;;;;;8.23;5.00;;;;;;;24.70;57.19;100107.63;6634920;26;33848;-86
2023/05/24 14:19:36;;;;;;;5.82;4.82;;;;;;;24.78;57.78;100098.56;6635487;26;34330;-86
2023/05/24 14:22:44;;;;;;;6.90;4.60;;;;;;;25.12;55.70;100096.56;6636765;26;33893;-86
2023/05/24 14:25:51;;;;;;;5.68;4.80;;;;;;;23.90;57.53;100103.88;6640474;26;33430;-85
2023/05/24 14:28:57;;;;;;;6.45;5.40;;;;;;;23.93;59.14;100100.84;6638731;26;34107;-85
2023/05/24 14:32:04;;;;;;;5.43;4.93;;;;;;;23.61;60.86;100106.09;6635382;26;34011;-86
2023/05/24 14:35:11;;;;;;;8.55;5.10;;;;;;;23.61;61.36;100108.78;6634277;26;34697;-87
2023/05/24 14:38:18;;;;;;;6.43;5.00;;;;;;;23.82;60.14;100107.44;6634692;26;33791;-87
2023/05/24 14:41:25;;;;;;;5.30;4.72;;;;;;;23.75;61.36;100109.13;6635312;26;33714;-86
2023/05/24 14:44:32;;;;;;;5.20;4.70;;;;;;;23.68;60.91;100106.25;6634886;26;33731;-87
2023/05/24 14:47:40;;;;;;;5.05;4.55;;;;;;;23.61;61.72;100106.09;6635752;26;34028;-87
2023/05/24 14:50:49;;;;;;;4.70;4.30;;;;;;;23.65;61.59;100112.88;6635728;26;33881;-87
2023/05/24 14:53:57;;;;;;;7.97;4.87;;;;;;;23.62;61.25;100120.44;6635565;26;34475;-87
2023/05/24 14:57:06;;;;;;;5.57;4.80;;;;;;;23.37;61.50;100118.56;6635663;26;33676;-87
2023/05/24 15:00:14;;;;;;;5.75;4.65;;;;;;;22.95;62.66;100117.63;6635168;26;33787;-87
2023/05/24 15:03:29;;;;;;;7.72;4.62;;;;;;;23.25;63.83;100118.03;6635956;26;33597;-87
2023/05/24 15:06:38;;;;;;;4.95;4.47;;;;;;;23.18;62.63;100122.37;6635015;26;34613;-87
2023/05/24 15:09:47;;;;;;;7.43;4.87;;;;;;;23.44;61.52;100129.59;6635726;26;33909;-87
2023/05/24 15:12:55;;;;;;;5.90;4.80;;;;;;;23.62;60.55;100125.88;6635659;26;33739;-91
2023/05/24 15:16:02;;;;;;;5.15;4.65;;;;;;;23.12;62.12;100133.88;6635846;26;33597;-88
2023/05/24 15:19:09;;;;;;;6.85;5.20;;;;;;;22.75;63.00;100127.84;6636882;26;34212;-86
